Portada
METAR-TAF:

METAR-TAF

Aeroports :

Base aèria

Hachinohe, Japó

latitud: 40-33N, longitud: 141-28E, altitud: 46 m

Observació

L'informe es va fer fa 17 hores i 2 minuts, a les 05:36 UTC
Vent 3 kt del Est
Temperatura 29°C
Humitat 74%
Pressió 1011 hPa
Visibilitat: 5000 m
Escasses núvols a una alçada de 1500 ft
Núvols disperses a una alçada de 3000 ft
Cel ennuvolat a una alçada de 15000 ft
boirina

METAR: RJSH 060536Z 09003KT 5000 BR FEW015 SCT030 BKN150 29/24 Q1011 RMK 1CU015 3CU030 7AC150 A2987

Hora: 07:38 (22:38 UTC)


TAF: manca

Observacions i pronòstics meteorològics de més de 4000 aeroports (METAR i TAF).

Les estacions disponibles són els punts grocs i vermells al mapa.

Posi el ratolí al punt desitjat per veure el nom de l'estació.

Feu clic per veure les observacions i els pronòstics meteorològics.

Per canviar el mapa: feu clic els botons verds amb una creu de color negre per apropar; al botó verd amb un guió per allunyar la imatge; o en les fletxes verdes per a mapes adjacents.


METAR-TAF: